Time;durP1;ratioP1;P1;durP2;ratioP2;P2;SDS_P1;SDS_P2;PMS_P1;PMS_P2;Temp;Humidity;BMP_temperature;BMP_pressure;BME280_temperature;BME280_humidity;BME280_pressure;Samples;Min_cycle;Max_cycle;Signal;HPM_P1;HPM_P2
2021/01/27 00:02:05;;;;;;;;;;;;;;;;;;5089785;28;19974;-67
2021/01/27 00:04:31;;;;;;;;;;;;;;;;;;5093422;28;19946;-66
2021/01/27 00:06:58;;;;;;;;;;;;;;;;;;5089799;28;20027;-66
2021/01/27 00:09:24;;;;;;;;;;;;;;;;;;5094006;28;19931;-67
2021/01/27 00:11:51;;;;;;;;;;;;;;;;;;5085360;28;19938;-68
2021/01/27 00:14:17;;;;;;;;;;;;;;;;;;5083311;28;19924;-67
2021/01/27 00:16:44;;;;;;;;;;;;;;;;;;5088672;28;19924;-70
2021/01/27 00:19:10;;;;;;;;;;;;;;;;;;5093246;28;19925;-69
2021/01/27 00:21:37;;;;;;;;;;;;;;;;;;5094661;28;19987;-67
2021/01/27 00:24:03;;;;;;;;;;;;;;;;;;5092772;28;19969;-67
2021/01/27 00:26:30;;;;;;;;;;;;;;;;;;5090545;28;19924;-67
2021/01/27 00:28:56;;;;;;;;;;;;;;;;;;5088081;28;19970;-67
2021/01/27 00:31:23;;;;;;;;;;;;;;;;;;5091449;28;19949;-68
2021/01/27 00:33:49;;;;;;;;;;;;;;;;;;5090446;28;20020;-66
2021/01/27 00:36:16;;;;;;;;;;;;;;;;;;5088961;28;19946;-68
2021/01/27 00:38:42;;;;;;;;;;;;;;;;;;5088115;28;20216;-66
2021/01/27 00:41:09;;;;;;;;;;;;;;;;;;5092293;28;20312;-65
2021/01/27 00:43:35;;;;;;;;;;;;;;;;;;5085867;28;19928;-66
2021/01/27 00:46:02;;;;;;;;;;;;;;;;;;5083642;28;19924;-66
2021/01/27 00:48:28;;;;;;;;;;;;;;;;;;5080985;28;19929;-68
2021/01/27 00:50:55;;;;;;;;;;;;;;;;;;5084230;28;19931;-65
2021/01/27 00:53:21;;;;;;;;;;;;;;;;;;5095645;28;20384;-66
2021/01/27 00:55:48;;;;;;;;;;;;;;;;;;5092268;28;19930;-66
2021/01/27 00:58:14;;;;;;;;;;;;;;;;;;5092746;28;20336;-66
2021/01/27 01:00:40;;;;;;;;;;;;;;;;;;5097230;28;19924;-66
2021/01/27 01:03:07;;;;;;;;;;;;;;;;;;5096616;28;19930;-67
2021/01/27 01:05:33;;;;;;;;;;;;;;;;;;5081749;28;19924;-66
2021/01/27 01:08:00;;;;;;;;;;;;;;;;;;5089546;28;19924;-67
2021/01/27 01:10:26;;;;;;;;;;;;;;;;;;5086048;28;19925;-67
2021/01/27 01:12:53;;;;;;;;;;;;;;;;;;5092454;28;19924;-66
2021/01/27 01:15:19;;;;;;;;;;;;;;;;;;5079233;28;20372;-67
2021/01/27 01:17:46;;;;;;;;;;;;;;;;;;5081604;28;19924;-67
2021/01/27 01:20:14;;;;;;;;;;;;;;;;;;5089609;28;20376;-67
2021/01/27 01:22:41;;;;;;;;;;;;;;;;;;5089345;28;20003;-67
2021/01/27 01:25:07;;;;;;;;;;;;;;;;;;5095041;28;19946;-67
2021/01/27 01:27:34;;;;;;;;;;;;;;;;;;5076377;28;19924;-67
2021/01/27 01:30:00;;;;;;;;;;;;;;;;;;5081095;28;19933;-67
2021/01/27 01:32:26;;;;;;;;;;;;;;;;;;5102133;22;19924;-68
2021/01/27 01:34:53;;;;;;;;;;;;;;;;;;5093053;28;19928;-67
2021/01/27 01:37:19;;;;;;;;;;;;;;;;;;5094365;28;20047;-67
2021/01/27 01:39:46;;;;;;;;;;;;;;;;;;5094507;28;19924;-67
2021/01/27 01:42:12;;;;;;;;;;;;;;;;;;5095188;28;19959;-67
2021/01/27 01:44:39;;;;;;;;;;;;;;;;;;5093983;28;20508;-67
2021/01/27 01:47:05;;;;;;;;;;;;;;;;;;5094898;28;19970;-67
2021/01/27 01:49:32;;;;;;;;;;;;;;;;;;5091060;28;19924;-66
2021/01/27 01:51:58;;;;;;;;;;;;;;;;;;5094506;28;19931;-67
2021/01/27 01:54:25;;;;;;;;;;;;;;;;;;5095367;28;19924;-67
2021/01/27 01:56:51;;;;;;;;;;;;;;;;;;5092228;28;19924;-67
2021/01/27 01:59:18;;;;;;;;;;;;;;;;;;5093510;28;19924;-68
2021/01/27 02:01:44;;;;;;;;;;;;;;;;;;5095485;28;20361;-67
2021/01/27 02:04:11;;;;;;;;;;;;;;;;;;5091851;28;19931;-68
2021/01/27 02:06:37;;;;;;;;;;;;;;;;;;5091402;28;19947;-68
2021/01/27 02:09:04;;;;;;;;;;;;;;;;;;5094678;28;19930;-67
2021/01/27 02:11:30;;;;;;;;;;;;;;;;;;5093945;28;19974;-67
2021/01/27 02:13:57;;;;;;;;;;;;;;;;;;5092827;28;20461;-68
2021/01/27 02:16:23;;;;;;;;;;;;;;;;;;5094407;28;19938;-65
2021/01/27 02:18:50;;;;;;;;;;;;;;;;;;5092664;28;19924;-67
2021/01/27 02:21:16;;;;;;;;;;;;;;;;;;5093529;28;19925;-66
2021/01/27 02:23:44;;;;;;;;;;;;;;;;;;5091766;28;20370;-66
2021/01/27 02:26:10;;;;;;;;;;;;;;;;;;5087201;28;19977;-66
2021/01/27 02:28:37;;;;;;;;;;;;;;;;;;5091173;28;19932;-66
2021/01/27 02:31:03;;;;;;;;;;;;;;;;;;5092903;28;19924;-66
2021/01/27 02:33:30;;;;;;;;;;;;;;;;;;5089758;28;19924;-67
2021/01/27 02:35:56;;;;;;;;;;;;;;;;;;5093034;28;19989;-66
2021/01/27 02:38:23;;;;;;;;;;;;;;;;;;5092941;28;19932;-66
2021/01/27 02:40:49;;;;;;;;;;;;;;;;;;5092860;28;19924;-66
2021/01/27 02:43:16;;;;;;;;;;;;;;;;;;5091813;28;19960;-66
2021/01/27 02:45:42;;;;;;;;;;;;;;;;;;5092028;28;20392;-66
2021/01/27 02:48:09;;;;;;;;;;;;;;;;;;5089586;28;19924;-68
2021/01/27 02:50:35;;;;;;;;;;;;;;;;;;5091282;28;19924;-66
2021/01/27 02:53:02;;;;;;;;;;;;;;;;;;5090709;28;19947;-66
2021/01/27 02:55:28;;;;;;;;;;;;;;;;;;5092579;28;19924;-66
2021/01/27 02:57:55;;;;;;;;;;;;;;;;;;5092150;28;20236;-66
2021/01/27 03:00:21;;;;;;;;;;;;;;;;;;5091824;28;19924;-66
2021/01/27 03:02:48;;;;;;;;;;;;;;;;;;5092258;28;19938;-66
2021/01/27 03:05:14;;;;;;;;;;;;;;;;;;5092906;28;19934;-66
2021/01/27 03:07:41;;;;;;;;;;;;;;;;;;5092850;28;19930;-66
2021/01/27 03:10:07;;;;;;;;;;;;;;;;;;5090717;28;20324;-66
2021/01/27 03:12:34;;;;;;;;;;;;;;;;;;5092269;28;19925;-66
2021/01/27 03:15:00;;;;;;;;;;;;;;;;;;5091391;28;20388;-66
2021/01/27 03:17:27;;;;;;;;;;;;;;;;;;5092324;28;19924;-66
2021/01/27 03:19:53;;;;;;;;;;;;;;;;;;5092142;28;20372;-67
2021/01/27 03:22:20;;;;;;;;;;;;;;;;;;5091626;28;19932;-67
2021/01/27 03:24:46;;;;;;;;;;;;;;;;;;5088437;28;19925;-67
2021/01/27 03:27:13;;;;;;;;;;;;;;;;;;5089456;28;20026;-66
2021/01/27 03:29:39;;;;;;;;;;;;;;;;;;5091611;28;19924;-66
2021/01/27 03:32:06;;;;;;;;;;;;;;;;;;5090115;28;20526;-67
2021/01/27 03:34:32;;;;;;;;;;;;;;;;;;5093055;28;19942;-66
2021/01/27 03:36:59;;;;;;;;;;;;;;;;;;5091572;28;19970;-68
2021/01/27 03:39:25;;;;;;;;;;;;;;;;;;5091811;28;19924;-67
2021/01/27 03:41:52;;;;;;;;;;;;;;;;;;5092505;28;19967;-67
2021/01/27 03:44:18;;;;;;;;;;;;;;;;;;5091424;28;19924;-71
2021/01/27 03:46:45;;;;;;;;;;;;;;;;;;5090490;28;19946;-66
2021/01/27 03:49:11;;;;;;;;;;;;;;;;;;5089297;28;20284;-67
2021/01/27 03:51:38;;;;;;;;;;;;;;;;;;5092112;28;19924;-66
2021/01/27 03:54:04;;;;;;;;;;;;;;;;;;5092056;28;19932;-66
2021/01/27 03:56:31;;;;;;;;;;;;;;;;;;5092456;28;20147;-66
2021/01/27 03:58:57;;;;;;;;;;;;;;;;;;5087519;28;20293;-67
2021/01/27 04:01:24;;;;;;;;;;;;;;;;;;5091513;28;19924;-66
2021/01/27 04:03:50;;;;;;;;;;;;;;;;;;5080586;28;20322;-66
2021/01/27 04:06:17;;;;;;;;;;;;;;;;;;5091276;28;19924;-67
2021/01/27 04:08:43;;;;;;;;;;;;;;;;;;5079173;28;19924;-67
2021/01/27 04:11:09;;;;;;;;;;;;;;;;;;5084398;28;20499;-67
2021/01/27 04:13:36;;;;;;;;;;;;;;;;;;5091592;28;20380;-66
2021/01/27 04:16:02;;;;;;;;;;;;;;;;;;5091396;28;19935;-66
2021/01/27 04:18:29;;;;;;;;;;;;;;;;;;5091634;28;20410;-66
2021/01/27 04:20:55;;;;;;;;;;;;;;;;;;5091077;28;20022;-66
2021/01/27 04:23:22;;;;;;;;;;;;;;;;;;5086078;28;20034;-66
2021/01/27 04:25:48;;;;;;;;;;;;;;;;;;5091520;28;19930;-67
2021/01/27 04:28:15;;;;;;;;;;;;;;;;;;5091229;28;20011;-67
2021/01/27 04:30:41;;;;;;;;;;;;;;;;;;5086905;28;20299;-67
2021/01/27 04:33:08;;;;;;;;;;;;;;;;;;5088038;28;20337;-67
2021/01/27 04:35:34;;;;;;;;;;;;;;;;;;5091930;28;20086;-67
2021/01/27 04:38:01;;;;;;;;;;;;;;;;;;5090765;28;19924;-65
2021/01/27 04:40:27;;;;;;;;;;;;;;;;;;5090658;28;19924;-68
2021/01/27 04:42:54;;;;;;;;;;;;;;;;;;5081212;28;19928;-66
2021/01/27 04:45:20;;;;;;;;;;;;;;;;;;5085051;28;19943;-66
2021/01/27 04:47:47;;;;;;;;;;;;;;;;;;5084025;28;19947;-65
2021/01/27 04:50:13;;;;;;;;;;;;;;;;;;5090193;28;19928;-67
2021/01/27 04:52:40;;;;;;;;;;;;;;;;;;5089350;28;20263;-66
2021/01/27 04:55:06;;;;;;;;;;;;;;;;;;5091107;28;19932;-67
2021/01/27 04:57:33;;;;;;;;;;;;;;;;;;5091222;28;19927;-66
2021/01/27 04:59:59;;;;;;;;;;;;;;;;;;5092655;28;19931;-67
2021/01/27 05:02:26;;;;;;;;;;;;;;;;;;5091028;28;20014;-65
2021/01/27 05:04:52;;;;;;;;;;;;;;;;;;5083739;28;19928;-65
2021/01/27 05:07:19;;;;;;;;;;;;;;;;;;5098908;28;19924;-66
2021/01/27 05:09:45;;;;;;;;;;;;;;;;;;5095567;28;19924;-65
2021/01/27 05:12:11;;;;;;;;;;;;;;;;;;5087700;28;20046;-66
2021/01/27 05:14:38;;;;;;;;;;;;;;;;;;5083240;28;19925;-66
2021/01/27 05:17:04;;;;;;;;;;;;;;;;;;5091231;28;19935;-66
2021/01/27 05:19:31;;;;;;;;;;;;;;;;;;5086794;28;19924;-69
2021/01/27 05:21:57;;;;;;;;;;;;;;;;;;5090643;28;19924;-66
2021/01/27 05:24:24;;;;;;;;;;;;;;;;;;5076335;28;19924;-66
2021/01/27 05:26:50;;;;;;;;;;;;;;;;;;5092156;28;20345;-67
2021/01/27 05:29:17;;;;;;;;;;;;;;;;;;5089987;28;19972;-65
2021/01/27 05:31:45;;;;;;;;;;;;;;;;;;5085184;28;20393;-66
2021/01/27 05:34:11;;;;;;;;;;;;;;;;;;5087962;28;19924;-65
2021/01/27 05:36:38;;;;;;;;;;;;;;;;;;5089850;28;19932;-66
2021/01/27 05:39:04;;;;;;;;;;;;;;;;;;5093377;28;20338;-67
2021/01/27 05:41:31;;;;;;;;;;;;;;;;;;5089384;28;19935;-67
2021/01/27 05:43:57;;;;;;;;;;;;;;;;;;5094892;28;19924;-66
2021/01/27 05:46:24;;;;;;;;;;;;;;;;;;5095776;28;19928;-65
2021/01/27 05:48:50;;;;;;;;;;;;;;;;;;5091435;28;20370;-66
2021/01/27 05:51:17;;;;;;;;;;;;;;;;;;5094239;28;19946;-66
2021/01/27 05:53:43;;;;;;;;;;;;;;;;;;5094440;28;20428;-66
2021/01/27 05:56:09;;;;;;;;;;;;;;;;;;5092489;28;19969;-67
2021/01/27 05:58:36;;;;;;;;;;;;;;;;;;5094603;28;20399;-67
2021/01/27 06:01:02;;;;;;;;;;;;;;;;;;5086036;28;19974;-66
2021/01/27 06:03:29;;;;;;;;;;;;;;;;;;5094927;28;20376;-67
2021/01/27 06:05:55;;;;;;;;;;;;;;;;;;5092845;28;19930;-65
2021/01/27 06:08:22;;;;;;;;;;;;;;;;;;5093996;28;19928;-66
2021/01/27 06:10:48;;;;;;;;;;;;;;;;;;5091697;28;19928;-65
2021/01/27 06:13:15;;;;;;;;;;;;;;;;;;5096192;28;19924;-65
2021/01/27 06:15:41;;;;;;;;;;;;;;;;;;5098720;28;19924;-66
2021/01/27 06:18:08;;;;;;;;;;;;;;;;;;5092786;28;19946;-65
2021/01/27 06:20:34;;;;;;;;;;;;;;;;;;5088772;28;19932;-66
2021/01/27 06:23:02;;;;;;;;;;;;;;;;;;5097482;28;19954;-66
2021/01/27 06:25:29;;;;;;;;;;;;;;;;;;5085744;28;19995;-66
2021/01/27 06:27:55;;;;;;;;;;;;;;;;;;5090008;28;20067;-66
2021/01/27 06:30:22;;;;;;;;;;;;;;;;;;5092704;28;20015;-66
2021/01/27 06:32:48;;;;;;;;;;;;;;;;;;5099011;28;20040;-66
2021/01/27 06:35:15;;;;;;;;;;;;;;;;;;5093812;28;19938;-65
2021/01/27 06:37:41;;;;;;;;;;;;;;;;;;5074609;28;19924;-65
2021/01/27 06:40:08;;;;;;;;;;;;;;;;;;5082528;28;20026;-64
2021/01/27 06:42:34;;;;;;;;;;;;;;;;;;5085569;28;20369;-65
2021/01/27 06:45:01;;;;;;;;;;;;;;;;;;5086192;28;20022;-65
2021/01/27 06:47:27;;;;;;;;;;;;;;;;;;5093831;28;19959;-65
2021/01/27 06:49:55;;;;;;;;;;;;;;;;;;5092588;28;19977;-65
2021/01/27 06:52:22;;;;;;;;;;;;;;;;;;5085246;28;20403;-66
2021/01/27 06:54:49;;;;;;;;;;;;;;;;;;5088422;28;19924;-65
2021/01/27 06:57:15;;;;;;;;;;;;;;;;;;5083617;28;19924;-65
2021/01/27 06:59:45;;;;;;;;;;;;;;;;;;5081439;28;19928;-66
2021/01/27 07:02:12;;;;;;;;;;;;;;;;;;5085353;28;19933;-65
2021/01/27 07:04:39;;;;;;;;;;;;;;;;;;5093405;28;19924;-66
2021/01/27 07:07:07;;;;;;;;;;;;;;;;;;5094047;28;19931;-65
2021/01/27 07:09:34;;;;;;;;;;;;;;;;;;5091525;28;19924;-65
2021/01/27 07:12:02;;;;;;;;;;;;;;;;;;5087048;28;19925;-65
2021/01/27 07:14:29;;;;;;;;;;;;;;;;;;5092423;28;19936;-64
2021/01/27 07:16:55;;;;;;;;;;;;;;;;;;5082389;28;19978;-65
2021/01/27 07:19:22;;;;;;;;;;;;;;;;;;5084426;28;19977;-65
2021/01/27 07:21:48;;;;;;;;;;;;;;;;;;5091504;28;19924;-64
2021/01/27 07:24:17;;;;;;;;;;;;;;;;;;5092274;28;19968;-66
2021/01/27 07:26:43;;;;;;;;;;;;;;;;;;5092357;28;19924;-66
2021/01/27 07:29:10;;;;;;;;;;;;;;;;;;5084977;28;19924;-67
2021/01/27 07:31:36;;;;;;;;;;;;;;;;;;5087130;28;19924;-66
2021/01/27 07:34:03;;;;;;;;;;;;;;;;;;5114231;22;19976;-68
2021/01/27 07:36:32;;;;;;;;;;;;;;;;;;5106471;28;19923;-66
2021/01/27 07:38:59;;;;;;;;;;;;;;;;;;5108483;28;20378;-66
2021/01/27 07:41:25;;;;;;;;;;;;;;;;;;5109536;28;19923;-67
2021/01/27 07:43:51;;;;;;;;;;;;;;;;;;5109632;28;19928;-66
2021/01/27 07:46:18;;;;;;;;;;;;;;;;;;5111819;28;20053;-66
2021/01/27 07:48:44;;;;;;;;;;;;;;;;;;5104403;28;19924;-66
2021/01/27 07:51:11;;;;;;;;;;;;;;;;;;5108539;28;20050;-63
2021/01/27 07:53:37;;;;;;;;;;;;;;;;;;5108782;28;19925;-67
2021/01/27 07:56:04;;;;;;;;;;;;;;;;;;5101687;28;19927;-67
2021/01/27 07:58:30;;;;;;;;;;;;;;;;;;5111475;28;20027;-67
2021/01/27 08:00:56;;;;;;;;;;;;;;;;;;5109408;28;19932;-69
2021/01/27 08:03:23;;;;;;;;;;;;;;;;;;5112593;28;19930;-67
2021/01/27 08:05:49;;;;;;;;;;;;;;;;;;5109593;28;20018;-66
2021/01/27 08:08:16;;;;;;;;;;;;;;;;;;5113430;28;20329;-67
2021/01/27 08:10:42;;;;;;;;;;;;;;;;;;5113169;28;20302;-68
2021/01/27 08:13:09;;;;;;;;;;;;;;;;;;5096429;28;19967;-67
2021/01/27 08:15:35;;;;;;;;;;;;;;;;;;5111633;28;20206;-67
2021/01/27 08:18:04;;;;;;;;;;;;;;;;;;5112507;28;19927;-68
2021/01/27 08:20:31;;;;;;;;;;;;;;;;;;5105781;28;20022;-67
2021/01/27 08:22:57;;;;;;;;;;;;;;;;;;5112992;28;19931;-67
2021/01/27 08:25:24;;;;;;;;;;;;;;;;;;5113747;28;20014;-68
2021/01/27 08:27:50;;;;;;;;;;;;;;;;;;5111428;28;19978;-68
2021/01/27 08:30:17;;;;;;;;;;;;;;;;;;5111623;28;19924;-67
2021/01/27 08:32:45;;;;;;;;;;;;;;;;;;5099221;28;20482;-68
2021/01/27 08:35:11;;;;;;;;;;;;;;;;;;5111096;28;19932;-68
2021/01/27 08:37:38;;;;;;;;;;;;;;;;;;5114098;28;19930;-68
2021/01/27 08:40:04;;;;;;;;;;;;;;;;;;5112871;28;19930;-67
2021/01/27 08:42:31;;;;;;;;;;;;;;;;;;5113621;28;19924;-67
2021/01/27 08:44:57;;;;;;;;;;;;;;;;;;5112510;28;19924;-68
2021/01/27 08:47:24;;;;;;;;;;;;;;;;;;5105833;28;20014;-67
2021/01/27 08:49:50;;;;;;;;;;;;;;;;;;5108979;28;20348;-66
2021/01/27 08:52:16;;;;;;;;;;;;;;;;;;5111563;28;19923;-67
2021/01/27 08:54:45;;;;;;;;;;;;;;;;;;5112866;28;19924;-66
2021/01/27 08:57:11;;;;;;;;;;;;;;;;;;5113117;28;20389;-68
2021/01/27 08:59:38;;;;;;;;;;;;;;;;;;5108317;28;19930;-67
2021/01/27 09:02:04;;;;;;;;;;;;;;;;;;5111999;28;20117;-67
2021/01/27 09:04:31;;;;;;;;;;;;;;;;;;5109493;28;20419;-67
2021/01/27 09:06:57;;;;;;;;;;;;;;;;;;5112841;28;19924;-67
2021/01/27 09:09:24;;;;;;;;;;;;;;;;;;5107483;28;20311;-69
2021/01/27 09:11:50;;;;;;;;;;;;;;;;;;5108360;28;19924;-68
2021/01/27 09:14:16;;;;;;;;;;;;;;;;;;5115240;28;19988;-68
2021/01/27 09:16:43;;;;;;;;;;;;;;;;;;5114748;27;19924;-67
2021/01/27 09:19:09;;;;;;;;;;;;;;;;;;5112679;28;20048;-65
2021/01/27 09:21:36;;;;;;;;;;;;;;;;;;5107205;28;20397;-66
2021/01/27 09:24:02;;;;;;;;;;;;;;;;;;5102146;28;20325;-67
2021/01/27 09:26:29;;;;;;;;;;;;;;;;;;5117114;27;19946;-67
2021/01/27 09:28:55;;;;;;;;;;;;;;;;;;5108592;28;19924;-66
2021/01/27 09:31:22;;;;;;;;;;;;;;;;;;5107792;28;19934;-67
2021/01/27 09:33:50;;;;;;;;;;;;;;;;;;5107583;28;19974;-67
2021/01/27 09:36:16;;;;;;;;;;;;;;;;;;5111861;28;20367;-68
2021/01/27 09:38:42;;;;;;;;;;;;;;;;;;5115991;28;20367;-67
2021/01/27 09:41:09;;;;;;;;;;;;;;;;;;5107427;28;19930;-67
2021/01/27 09:43:35;;;;;;;;;;;;;;;;;;5116656;28;20216;-68
2021/01/27 09:46:02;;;;;;;;;;;;;;;;;;5101236;28;19951;-66
2021/01/27 09:48:28;;;;;;;;;;;;;;;;;;5110514;28;20371;-70
2021/01/27 09:50:55;;;;;;;;;;;;;;;;;;5113039;28;19945;-69
2021/01/27 09:53:22;;;;;;;;;;;;;;;;;;5113614;27;19935;-66
2021/01/27 09:55:48;;;;;;;;;;;;;;;;;;5110786;28;19931;-67
2021/01/27 09:58:15;;;;;;;;;;;;;;;;;;5110375;28;19928;-69
2021/01/27 10:00:41;;;;;;;;;;;;;;;;;;5113557;27;19934;-68
2021/01/27 10:03:08;;;;;;;;;;;;;;;;;;5115486;28;19924;-66
2021/01/27 10:05:34;;;;;;;;;;;;;;;;;;5109203;28;20375;-65
2021/01/27 10:08:00;;;;;;;;;;;;;;;;;;5114104;28;19959;-67
2021/01/27 10:10:27;;;;;;;;;;;;;;;;;;5109670;28;19930;-66
2021/01/27 10:12:53;;;;;;;;;;;;;;;;;;5113145;28;19976;-66
2021/01/27 10:15:20;;;;;;;;;;;;;;;;;;5110797;28;19930;-65
2021/01/27 10:17:46;;;;;;;;;;;;;;;;;;5113808;28;19924;-66
2021/01/27 10:20:13;;;;;;;;;;;;;;;;;;5112742;28;20314;-65
2021/01/27 10:22:41;;;;;;;;;;;;;;;;;;5112020;28;19946;-68
2021/01/27 10:25:07;;;;;;;;;;;;;;;;;;5111713;28;19926;-69
2021/01/27 10:27:34;;;;;;;;;;;;;;;;;;5102778;28;20349;-67
2021/01/27 10:30:00;;;;;;;;;;;;;;;;;;5111141;28;19931;-68
2021/01/27 10:32:26;;;;;;;;;;;;;;;;;;5111825;28;20344;-67
2021/01/27 10:34:53;;;;;;;;;;;;;;;;;;5107592;28;19930;-69
2021/01/27 10:37:19;;;;;;;;;;;;;;;;;;5113874;28;20006;-66
2021/01/27 10:39:46;;;;;;;;;;;;;;;;;;5113198;28;19924;-67
2021/01/27 10:42:12;;;;;;;;;;;;;;;;;;5111717;28;20014;-69
2021/01/27 10:44:39;;;;;;;;;;;;;;;;;;5113440;28;19930;-69
2021/01/27 10:47:05;;;;;;;;;;;;;;;;;;5108779;28;19928;-66
2021/01/27 10:49:32;;;;;;;;;;;;;;;;;;5110437;28;19927;-67
2021/01/27 10:51:58;;;;;;;;;;;;;;;;;;5108309;28;19931;-68
2021/01/27 10:54:25;;;;;;;;;;;;;;;;;;5111821;28;19924;-67
2021/01/27 10:56:51;;;;;;;;;;;;;;;;;;5110289;28;19927;-67
2021/01/27 10:59:18;;;;;;;;;;;;;;;;;;5110144;28;19931;-67
2021/01/27 11:01:44;;;;;;;;;;;;;;;;;;5113842;27;19934;-67
2021/01/27 11:04:11;;;;;;;;;;;;;;;;;;5111073;28;19984;-66
2021/01/27 11:06:37;;;;;;;;;;;;;;;;;;5108764;27;20004;-67
2021/01/27 11:09:04;;;;;;;;;;;;;;;;;;5113096;28;19923;-67
2021/01/27 11:11:30;;;;;;;;;;;;;;;;;;5107390;27;19963;-67
2021/01/27 11:13:57;;;;;;;;;;;;;;;;;;5112096;28;19930;-67
2021/01/27 11:16:23;;;;;;;;;;;;;;;;;;5108642;28;20014;-68
2021/01/27 11:18:50;;;;;;;;;;;;;;;;;;5105393;28;20324;-67
2021/01/27 11:21:16;;;;;;;;;;;;;;;;;;5108789;28;19924;-67
2021/01/27 11:23:43;;;;;;;;;;;;;;;;;;5108211;28;19995;-68
2021/01/27 11:26:09;;;;;;;;;;;;;;;;;;5108225;28;20031;-66
2021/01/27 11:28:35;;;;;;;;;;;;;;;;;;5112781;28;19963;-67
2021/01/27 11:31:02;;;;;;;;;;;;;;;;;;5104759;28;20429;-67
2021/01/27 11:33:28;;;;;;;;;;;;;;;;;;5103055;28;20294;-67
2021/01/27 11:35:55;;;;;;;;;;;;;;;;;;5103951;28;20350;-67
2021/01/27 11:38:21;;;;;;;;;;;;;;;;;;5113254;28;19928;-70
2021/01/27 11:40:48;;;;;;;;;;;;;;;;;;5103191;28;20294;-67
2021/01/27 11:43:15;;;;;;;;;;;;;;;;;;5105778;28;20053;-67
2021/01/27 11:45:41;;;;;;;;;;;;;;;;;;5110977;28;19980;-67
2021/01/27 11:48:08;;;;;;;;;;;;;;;;;;5111784;28;20007;-66
2021/01/27 11:50:34;;;;;;;;;;;;;;;;;;5110386;28;19928;-64
2021/01/27 11:53:01;;;;;;;;;;;;;;;;;;5103833;28;20018;-67
2021/01/27 11:55:27;;;;;;;;;;;;;;;;;;5106832;28;20014;-67
2021/01/27 11:57:54;;;;;;;;;;;;;;;;;;5111395;28;20023;-68
2021/01/27 12:00:20;;;;;;;;;;;;;;;;;;5106577;28;19930;-67
2021/01/27 12:02:46;;;;;;;;;;;;;;;;;;5107777;27;19923;-68
2021/01/27 12:05:13;;;;;;;;;;;;;;;;;;5108596;28;19923;-70
2021/01/27 12:07:39;;;;;;;;;;;;;;;;;;5102337;28;19971;-67
2021/01/27 12:10:06;;;;;;;;;;;;;;;;;;5103783;28;20419;-68
2021/01/27 12:12:32;;;;;;;;;;;;;;;;;;5106620;28;20295;-67
2021/01/27 12:14:59;;;;;;;;;;;;;;;;;;5105279;28;20291;-67
2021/01/27 12:17:25;;;;;;;;;;;;;;;;;;5112204;28;19976;-67
2021/01/27 12:19:52;;;;;;;;;;;;;;;;;;5109881;27;20018;-68
2021/01/27 12:22:18;;;;;;;;;;;;;;;;;;5104312;28;19924;-67
2021/01/27 12:24:45;;;;;;;;;;;;;;;;;;5096272;28;19924;-67
2021/01/27 12:27:11;;;;;;;;;;;;;;;;;;5101271;28;20024;-68
2021/01/27 12:29:38;;;;;;;;;;;;;;;;;;5104621;28;19930;-68
2021/01/27 12:32:05;;;;;;;;;;;;;;;;;;5100996;28;20470;-68
2021/01/27 12:34:31;;;;;;;;;;;;;;;;;;5104761;28;19927;-69
2021/01/27 12:36:59;;;;;;;;;;;;;;;;;;5104876;28;19931;-67
2021/01/27 12:39:25;;;;;;;;;;;;;;;;;;5103070;28;19928;-65
2021/01/27 12:41:51;;;;;;;;;;;;;;;;;;5101047;28;19959;-67
2021/01/27 12:44:18;;;;;;;;;;;;;;;;;;5104130;28;19931;-68
2021/01/27 12:46:44;;;;;;;;;;;;;;;;;;5104045;28;19934;-68
2021/01/27 12:49:11;;;;;;;;;;;;;;;;;;5107545;28;20335;-66
2021/01/27 12:51:38;;;;;;;;;;;;;;;;;;5106891;28;19928;-68
2021/01/27 12:54:04;;;;;;;;;;;;;;;;;;5107623;28;21244;-68
2021/01/27 12:56:31;;;;;;;;;;;;;;;;;;5107354;28;20073;-66
2021/01/27 12:58:57;;;;;;;;;;;;;;;;;;5105346;27;19928;-68
2021/01/27 13:01:24;;;;;;;;;;;;;;;;;;5105570;28;19968;-67
2021/01/27 13:03:50;;;;;;;;;;;;;;;;;;5102685;27;20387;-67
2021/01/27 13:06:17;;;;;;;;;;;;;;;;;;5109194;28;20440;-68
2021/01/27 13:08:44;;;;;;;;;;;;;;;;;;5110504;28;20398;-67
2021/01/27 13:11:11;;;;;;;;;;;;;;;;;;5104803;28;20054;-67
2021/01/27 13:13:37;;;;;;;;;;;;;;;;;;5107865;28;19934;-66
2021/01/27 13:16:04;;;;;;;;;;;;;;;;;;5105771;28;19971;-67
2021/01/27 13:18:30;;;;;;;;;;;;;;;;;;5106803;28;19924;-67
2021/01/27 13:20:57;;;;;;;;;;;;;;;;;;5107533;28;19932;-67
2021/01/27 13:23:23;;;;;;;;;;;;;;;;;;5111877;28;19928;-67
2021/01/27 13:25:49;;;;;;;;;;;;;;;;;;5104014;28;20405;-67
2021/01/27 13:28:16;;;;;;;;;;;;;;;;;;5108023;28;20428;-66
2021/01/27 13:30:42;;;;;;;;;;;;;;;;;;5102839;28;20299;-67
2021/01/27 13:33:09;;;;;;;;;;;;;;;;;;5119345;22;19928;-76
2021/01/27 13:35:36;;;;;;;;;;;;;;;;;;5078916;28;20000;-77
2021/01/27 13:38:03;;;;;;;;;;;;;;;;;;5079392;28;20047;-77
2021/01/27 13:40:29;;;;;;;;;;;;;;;;;;5079475;28;19928;-78
2021/01/27 13:42:55;;;;;;;;;;;;;;;;;;5081772;28;19933;-77
2021/01/27 13:45:22;;;;;;;;;;;;;;;;;;5083123;28;19960;-77
2021/01/27 13:47:49;;;;;;;;;;;;;;;;;;5078767;28;19982;-77
2021/01/27 13:50:15;;;;;;;;;;;;;;;;;;5085950;28;19991;-76
2021/01/27 13:52:42;;;;;;;;;;;;;;;;;;5080051;28;19979;-76
2021/01/27 13:55:08;;;;;;;;;;;;;;;;;;5088337;28;19924;-75
2021/01/27 13:57:34;;;;;;;;;;;;;;;;;;5087023;28;19924;-77
2021/01/27 14:00:01;;;;;;;;;;;;;;;;;;5092790;28;19924;-76
2021/01/27 14:02:29;;;;;;;;;;;;;;;;;;5086520;28;19932;-77
2021/01/27 14:04:55;;;;;;;;;;;;;;;;;;5076331;28;19932;-78
2021/01/27 14:07:22;;;;;;;;;;;;;;;;;;5082357;28;20093;-79
2021/01/27 14:09:48;;;;;;;;;;;;;;;;;;5079657;28;19964;-77
2021/01/27 14:12:15;;;;;;;;;;;;;;;;;;5082020;28;19943;-79
2021/01/27 14:14:41;;;;;;;;;;;;;;;;;;5078285;28;20359;-78
2021/01/27 14:17:08;;;;;;;;;;;;;;;;;;5080173;28;20210;-77
2021/01/27 14:19:34;;;;;;;;;;;;;;;;;;5088790;28;20316;-82
2021/01/27 14:22:01;;;;;;;;;;;;;;;;;;5083140;28;19924;-78
2021/01/27 14:24:28;;;;;;;;;;;;;;;;;;5085771;28;19932;-77
2021/01/27 14:26:54;;;;;;;;;;;;;;;;;;5091237;28;19924;-77
2021/01/27 14:29:21;;;;;;;;;;;;;;;;;;5076175;28;19928;-77
2021/01/27 14:31:47;;;;;;;;;;;;;;;;;;5082438;28;19932;-79
2021/01/27 14:34:14;;;;;;;;;;;;;;;;;;5082991;28;19932;-79
2021/01/27 14:36:40;;;;;;;;;;;;;;;;;;5090747;28;19986;-77
2021/01/27 14:39:07;;;;;;;;;;;;;;;;;;5085694;28;19928;-77
2021/01/27 14:41:34;;;;;;;;;;;;;;;;;;5084019;28;19933;-77
2021/01/27 14:44:00;;;;;;;;;;;;;;;;;;5085969;28;19920;-78
2021/01/27 14:46:27;;;;;;;;;;;;;;;;;;5080918;28;20410;-76
2021/01/27 14:48:53;;;;;;;;;;;;;;;;;;5087809;28;20030;-76
2021/01/27 14:51:23;;;;;;;;;;;;;;;;;;5084574;28;19924;-76
2021/01/27 14:56:43;;;;;;;;;;;;;;;;;;5072165;28;20290;-76
2021/01/27 14:59:10;;;;;;;;;;;;;;;;;;5093626;28;19930;-77
2021/01/27 15:01:36;;;;;;;;;;;;;;;;;;5082759;28;20051;-76
2021/01/27 15:04:03;;;;;;;;;;;;;;;;;;5089570;28;20014;-77
2021/01/27 15:06:29;;;;;;;;;;;;;;;;;;5081877;28;19935;-76
2021/01/27 15:08:56;;;;;;;;;;;;;;;;;;5071426;28;19958;-78
2021/01/27 15:11:23;;;;;;;;;;;;;;;;;;5079497;28;20309;-78
2021/01/27 15:13:49;;;;;;;;;;;;;;;;;;5086109;28;19941;-79
2021/01/27 15:16:16;;;;;;;;;;;;;;;;;;5084078;28;19950;-79
2021/01/27 15:18:42;;;;;;;;;;;;;;;;;;5085828;28;20266;-77
2021/01/27 15:21:09;;;;;;;;;;;;;;;;;;5088652;28;19924;-78
2021/01/27 15:23:36;;;;;;;;;;;;;;;;;;5090046;28;20134;-77
2021/01/27 15:26:02;;;;;;;;;;;;;;;;;;5082238;28;19932;-77
2021/01/27 15:28:29;;;;;;;;;;;;;;;;;;5087993;28;19924;-77
2021/01/27 15:30:55;;;;;;;;;;;;;;;;;;5091653;28;20285;-77
2021/01/27 15:33:22;;;;;;;;;;;;;;;;;;5094230;28;19924;-78
2021/01/27 15:35:48;;;;;;;;;;;;;;;;;;5091943;28;20172;-77
2021/01/27 15:38:15;;;;;;;;;;;;;;;;;;5091626;28;19932;-77
2021/01/27 15:40:41;;;;;;;;;;;;;;;;;;5090957;28;19964;-78
2021/01/27 15:43:10;;;;;;;;;;;;;;;;;;5098076;28;19928;-77
2021/01/27 15:45:36;;;;;;;;;;;;;;;;;;5099832;28;19954;-77
2021/01/27 15:48:03;;;;;;;;;;;;;;;;;;5104741;28;19999;-78
2021/01/27 15:50:29;;;;;;;;;;;;;;;;;;5110298;27;19912;-78
2021/01/27 15:52:56;;;;;;;;;;;;;;;;;;5107615;28;19924;-75
2021/01/27 15:55:22;;;;;;;;;;;;;;;;;;5095669;28;20386;-78
2021/01/27 15:57:49;;;;;;;;;;;;;;;;;;5095952;28;19924;-78
2021/01/27 16:00:15;;;;;;;;;;;;;;;;;;5100556;28;19932;-77
2021/01/27 16:02:42;;;;;;;;;;;;;;;;;;5105796;27;19935;-78
2021/01/27 16:05:09;;;;;;;;;;;;;;;;;;5108708;27;20032;-78
2021/01/27 16:07:35;;;;;;;;;;;;;;;;;;5104528;28;19932;-76
2021/01/27 16:10:02;;;;;;;;;;;;;;;;;;5084481;28;19987;-77
2021/01/27 16:12:28;;;;;;;;;;;;;;;;;;5084771;28;19925;-77
2021/01/27 16:14:55;;;;;;;;;;;;;;;;;;5082673;28;19932;-78
2021/01/27 16:17:21;;;;;;;;;;;;;;;;;;5086999;28;20419;-77
2021/01/27 16:19:48;;;;;;;;;;;;;;;;;;5084832;28;19924;-78
2021/01/27 16:22:14;;;;;;;;;;;;;;;;;;5089813;28;20066;-77
2021/01/27 16:24:41;;;;;;;;;;;;;;;;;;5085838;28;19928;-78
2021/01/27 16:27:08;;;;;;;;;;;;;;;;;;5080674;28;19939;-78
2021/01/27 16:29:34;;;;;;;;;;;;;;;;;;5070616;28;19931;-77
2021/01/27 16:32:01;;;;;;;;;;;;;;;;;;5073373;28;19931;-78
2021/01/27 16:34:27;;;;;;;;;;;;;;;;;;5074681;28;19974;-77
2021/01/27 16:36:54;;;;;;;;;;;;;;;;;;5082323;28;19924;-79
2021/01/27 16:39:20;;;;;;;;;;;;;;;;;;5083796;28;20113;-76
2021/01/27 16:41:47;;;;;;;;;;;;;;;;;;5086568;28;20462;-77
2021/01/27 16:44:14;;;;;;;;;;;;;;;;;;5085413;28;19977;-77